Latest Weather Observations for Lombadina

IDW60801

Issued at 7:32 pm WST Saturday 31 January 2015 (issued every 30 minutes, with the page automatically refreshed every 10 minutes)

About weather observations | Map of weather stations | Latest weather observations for WA | Other Formats
Station Details ID: 503016 Name: LOMBADINA AIRSTRIP Lat: -16.52 Lon: 122.92 Height: 42.0 m
Data from the previous 72 hours. | See also: Recent months for locations in Western Australia
Date/Time
WST
Temp
°C
App
Temp
°C
Dew
Point
Rel
Hum
%
Delta-T
°C
Wind Press
QNH
hPa
Press
MSL
hPa
Rain
since 9 am
mm
Dir
 
Spd
km/h
Gust
km/h
Spd
kts
Gust
kts
31/07:30pm 28.2 33.0 22.8 72 3.7 W 2 7 1 4 1008.5 1008.1 0.0
31/07:00pm 28.5 32.5 22.8 71 3.9 W 6 11 3 6 1008.1 1007.7 0.0
31/06:30pm 28.9 32.8 23.0 70 4.0 W 7 15 4 8 1007.7 1007.3 0.0
31/06:00pm 29.2 33.4 23.2 70 4.1 W 6 17 3 9 1007.3 1006.9 0.0
31/05:30pm 29.8 33.5 23.3 68 4.5 W 9 20 5 11 1007.1 1006.7 0.0
31/05:00pm 30.2 33.9 23.9 69 4.4 W 11 20 6 11 1007.1 1006.7 0.0
31/04:30pm 30.7 35.0 24.3 68 4.5 WNW 9 19 5 10 1006.9 1006.5 0.0
31/04:00pm 30.5 34.1 23.8 67 4.7 NW 11 17 6 9 1006.9 1006.5 0.0
31/03:30pm 30.7 33.1 22.9 63 5.4 NW 15 20 8 11 1007.1 1006.7 0.0
31/03:00pm 31.2 34.5 23.9 65 5.1 NW 13 20 7 11 1007.1 1006.7 0.0
31/02:30pm 31.1 34.6 24.2 66 4.8 WNW 13 22 7 12 1007.5 1007.1 0.0
31/02:00pm 31.0 34.1 23.5 64 5.2 WNW 13 26 7 14 1007.8 1007.4 0.0
31/01:30pm 31.9 35.4 24.2 63 5.4 NW 13 22 7 12 1008.1 1007.7 0.0
31/01:00pm 30.8 33.8 23.4 64 5.1 WNW 13 20 7 11 1008.4 1008.0 0.0
31/12:30pm 31.6 34.7 23.5 62 5.6 WNW 13 24 7 13 1008.6 1008.2 0.0
31/12:00pm 31.3 34.7 23.4 63 5.5 WNW 11 22 6 12 1009.2 1008.8 0.0
31/11:30am 30.4 33.7 23.2 65 5.0 W 11 22 6 12 1009.7 1009.3 0.0
31/11:00am 30.0 33.0 23.3 67 4.6 WNW 13 22 7 12 1009.8 1009.4 0.0
31/10:30am 30.4 34.2 23.4 66 4.8 NW 9 15 5 8 1009.9 1009.5 0.0
31/10:00am 30.1 34.1 22.8 65 5.0 WSW 6 13 3 7 1009.9 1009.5 0.0
31/09:30am 30.6 34.1 22.8 63 5.3 WSW 9 15 5 8 1010.0 1009.7 0.0
31/09:00am 29.7 34.6 23.6 69 4.2 W 4 11 2 6 1010.1 1009.8 0.0
31/08:30am 30.3 34.1 22.7 64 5.2 WSW 7 13 4 7 1010.2 1009.9 0.0
31/08:00am 29.0 32.5 22.2 66 4.6 WNW 7 15 4 8 1010.3 1010.0 0.0
31/07:30am 29.1 33.3 23.1 70 4.1 WNW 6 11 3 6 1010.1 1009.8 0.0
31/07:00am 28.1 32.3 22.5 71 3.8 W 4 11 2 6 1009.8 1009.4 0.0
31/06:30am 27.7 32.4 23.3 77 3.0 WNW 4 11 2 6 1009.5 1009.1 0.0
31/06:00am 27.4 32.0 23.1 77 2.9 WNW 4 13 2 7 1009.2 1008.8 0.0
31/05:30am 27.4 32.0 23.1 77 2.9 WNW 4 11 2 6 1008.8 1008.4 0.0
31/05:00am 27.3 31.4 22.9 77 3.0 WNW 6 13 3 7 1008.5 1008.1 0.0
31/04:30am 27.2 31.6 22.8 77 3.0 WNW 4 9 2 5 1008.4 1008.0 0.0
31/04:00am 27.5 31.7 23.2 77 2.9 WNW 6 13 3 7 1008.5 1008.1 0.0
31/03:30am 27.1 31.7 23.2 79 2.7 WNW 4 9 2 5 1008.5 1008.1 0.0
31/03:00am 27.0 31.6 23.1 79 2.7 WNW 4 7 2 4 1008.5 1008.1 0.0
31/02:30am 27.4 31.5 22.9 76 3.1 WNW 6 13 3 7 1008.4 1008.0 0.0
31/02:00am 27.5 31.7 23.1 77 3.0 NW 6 11 3 6 1008.3 1007.9 0.0
31/01:30am 26.2 32.2 24.3 89 1.3 CALM 0 7 0 4 1008.4 1008.0 0.0
31/01:00am 25.4 31.2 23.9 91 1.0 CALM 0 2 0 1 1008.5 1008.1 0.0
31/12:30am 26.3 32.0 23.8 86 1.7 CALM 0 6 0 3 1008.6 1008.2 0.0
31/12:00am 27.6 33.5 24.7 84 2.0 NW 2 9 1 5 1008.6 1008.2 0.0
 
Date/Time
WST
Temp
°C
App
Temp
°C
Dew
Point
Rel
Hum
%
Delta-T
°C
Wind Press
QNH
hPa
Press
MSL
hPa
Rain
since 9 am
mm
Dir
 
Spd
km/h
Gust
km/h
Spd
kts
Gust
kts
30/11:30pm 27.3 33.1 24.6 85 1.9 NNW 2 7 1 4 1008.9 1008.5 0.0
30/11:00pm 27.6 32.5 24.7 84 2.0 NNW 7 13 4 7 1008.8 1008.4 0.0
30/10:30pm 27.6 33.1 24.6 84 2.1 NW 4 9 2 5 1009.0 1008.6 0.0
30/10:00pm 27.7 32.8 24.7 84 2.1 NW 6 11 3 6 1009.1 1008.7 0.0
30/09:30pm 27.9 32.8 24.7 83 2.2 NW 7 15 4 8 1009.0 1008.6 0.0
30/09:00pm 27.8 32.9 24.9 84 2.0 NW 7 13 4 7 1008.6 1008.2 0.0
30/08:30pm 27.8 32.6 25.1 85 1.9 NW 9 17 5 9 1007.9 1007.5 0.0
30/08:00pm 27.6 32.6 24.8 85 2.0 NW 7 15 4 8 1007.4 1007.0 0.0
30/07:30pm 27.4 32.5 24.7 85 1.9 NW 6 9 3 5 1007.1 1006.7 0.0
30/07:00pm 27.4 32.9 24.7 85 1.9 WNW 4 7 2 4 1007.1 1006.7 0.0
30/06:30pm 27.6 33.0 24.5 83 2.2 WNW 4 9 2 5 1007.0 1006.6 0.0
30/06:00pm 27.9 32.8 24.6 82 2.3 NW 7 15 4 8 1006.6 1006.2 0.0
30/05:30pm 28.1 32.7 24.1 79 2.8 NW 7 15 4 8 1006.7 1006.3 0.0
30/05:00pm 28.3 32.3 23.7 76 3.2 NW 9 15 5 8 1006.6 1006.2 0.0
30/04:30pm 28.7 32.9 23.4 73 3.6 WNW 7 15 4 8 1006.6 1006.2 0.0
30/04:00pm 28.4 32.7 23.3 74 3.5 NW 6 13 3 7 1006.7 1006.3 0.0
30/03:30pm 28.3 32.5 23.5 75 3.3 NW 7 13 4 7 1006.7 1006.3 0.0
30/03:00pm 28.8 33.1 23.6 73 3.6 NW 7 13 4 7 1006.8 1006.4 0.0
30/02:30pm 28.5 31.5 22.7 71 3.9 NNW 11 17 6 9 1006.6 1006.2 0.0
30/02:00pm 28.4 32.2 24.1 77 3.0 NNW 11 19 6 10 1007.3 1006.9 0.0
30/01:30pm 28.9 31.8 22.5 68 4.3 NW 11 19 6 10 1007.6 1007.2 0.0
30/01:00pm 29.4 33.8 23.5 70 4.1 NW 6 15 3 8 1008.0 1007.6 0.0
30/12:30pm 28.3 33.2 23.1 73 3.6 NE 2 6 1 3 1008.3 1007.9 0.0
30/12:00pm 26.3 30.9 24.2 88 1.5 NNW 7 11 4 6 1009.0 1008.6 0.0
30/11:30am 26.3 31.9 23.6 85 1.8 CALM 0 6 0 3 1009.4 1009.0 0.0
30/11:00am 26.0 29.6 23.8 88 1.5 E 11 19 6 10 1009.9 1009.5 0.0
30/10:30am 25.9 29.3 24.1 90 1.2 E 13 24 7 13 1009.8 1009.4 0.0
30/10:00am 25.4 28.1 23.5 89 1.3 E 15 32 8 17 1010.4 1010.1 0.0
30/09:48am 25.9 28.8 23.8 88 1.4 E 15 24 8 13 1010.2 1009.9 0.0
30/09:34am 26.0 29.3 23.9 88 1.4 E 13 26 7 14 1010.4 1010.1 0.0
30/09:30am 25.9 29.2 23.8 88 1.4 E 13 22 7 12 1010.5 1010.2 0.0
30/09:00am 28.1 32.4 24.2 79 2.7 SSE 9 19 5 10 1010.1 1009.8 0.0
30/08:30am 27.7 32.8 24.6 83 2.2 S 6 11 3 6 1009.8 1009.4 0.0
30/08:00am 27.4 32.4 24.5 84 2.0 S 6 11 3 6 1009.5 1009.1 0.0
30/07:30am 27.9 33.7 24.5 82 2.4 S 2 7 1 4 1008.9 1008.5 0.0
30/07:00am 27.8 33.0 24.2 81 2.5 SSW 4 9 2 5 1008.7 1008.3 0.0
30/06:30am 27.8 32.5 24.0 80 2.6 SW 6 11 3 6 1008.3 1007.9 0.0
30/06:00am 27.8 32.6 24.1 80 2.6 WSW 6 15 3 8 1007.7 1007.3 0.0
30/05:30am 27.7 32.3 24.2 81 2.4 W 7 15 4 8 1007.1 1006.7 0.0
30/05:00am 27.8 32.4 24.1 80 2.6 W 7 17 4 9 1007.1 1006.7 0.0
30/04:30am 27.7 32.5 24.1 81 2.5 W 6 11 3 6 1006.9 1006.5 0.0
30/04:00am 27.8 32.6 24.2 81 2.5 W 6 15 3 8 1007.1 1006.7 0.0
30/03:30am 27.7 32.5 24.1 81 2.5 W 6 11 3 6 1007.0 1006.6 0.0
30/03:00am 27.6 32.7 24.1 81 2.4 W 4 11 2 6 1006.7 1006.3 0.0
30/02:30am 27.5 32.4 24.3 83 2.2 W 6 13 3 7 1006.3 1005.9 0.0
30/02:00am 27.5 32.2 24.0 81 2.4 W 6 17 3 9 1006.4 1006.0 0.0
30/01:30am 27.4 32.7 24.3 83 2.1 W 4 11 2 6 1006.9 1006.5 0.0
30/01:00am 26.7 32.0 24.4 87 1.6 W 4 9 2 5 1007.2 1006.8 0.0
30/12:30am 25.9 32.0 24.5 92 1.0 CALM 0 4 0 2 1007.6 1007.2 0.0
30/12:00am 26.8 32.8 24.2 86 1.8 CALM 0 4 0 2 1007.8 1007.4 0.0
 
Date/Time
WST
Temp
°C
App
Temp
°C
Dew
Point
Rel
Hum
%
Delta-T
°C
Wind Press
QNH
hPa
Press
MSL
hPa
Rain
since 9 am
mm
Dir
 
Spd
km/h
Gust
km/h
Spd
kts
Gust
kts
29/11:30pm 26.5 32.0 24.1 87 1.7 WSW 2 4 1 2 1007.7 1007.3 0.0
29/11:00pm 26.7 32.6 24.7 89 1.4 WSW 2 6 1 3 1007.9 1007.5 0.0
29/10:30pm 27.0 33.1 24.5 86 1.7 CALM 0 4 0 2 1007.8 1007.4 0.0
29/10:00pm 27.0 32.9 24.7 87 1.6 W 2 6 1 3 1007.7 1007.3 0.0
29/09:30pm 26.7 32.7 24.3 87 1.7 CALM 0 4 0 2 1007.9 1007.5 0.0
29/09:00pm 27.2 33.2 24.3 84 2.0 CALM 0 4 0 2 1007.8 1007.4 0.0
29/08:30pm 27.7 33.6 24.7 84 2.1 WSW 2 9 1 5 1007.5 1007.1 0.0
29/08:00pm 27.8 32.7 24.4 82 2.4 WSW 6 13 3 7 1006.8 1006.4 0.0
29/07:30pm 28.0 33.6 24.2 80 2.6 WSW 2 9 1 5 1006.7 1006.3 0.0
29/07:00pm 28.3 33.2 24.4 79 2.7 WSW 6 13 3 7 1006.5 1006.1 0.0
29/06:30pm 28.5 33.1 24.1 77 3.0 WSW 7 17 4 9 1006.1 1005.7 0.0
29/06:00pm 29.3 33.6 23.7 72 3.9 WSW 7 17 4 9 1005.8 1005.4 0.0
29/05:30pm 29.8 33.6 23.4 68 4.4 W 9 20 5 11 1005.6 1005.2 0.0
29/05:00pm 30.3 33.9 23.7 68 4.6 W 11 20 6 11 1004.9 1004.6 0.0
29/04:30pm 29.8 33.8 23.7 70 4.2 W 9 20 5 11 1004.9 1004.6 0.0
29/04:00pm 29.8 33.4 23.7 70 4.2 W 11 20 6 11 1004.8 1004.5 0.0
29/03:30pm 30.8 33.7 22.4 61 5.7 W 11 20 6 11 1004.7 1004.4 0.0
29/03:00pm 31.7 34.2 21.0 53 7.2 W 9 19 5 10 1004.8 1004.5 0.0
29/02:30pm 31.7 35.3 22.3 57 6.4 WNW 7 19 4 10 1005.1 1004.7 0.0
29/02:00pm 30.8 34.2 23.3 64 5.2 NW 11 20 6 11 1005.4 1005.0 0.0
29/01:30pm 31.2 35.1 23.6 64 5.3 NW 9 19 5 10 1005.4 1005.0 0.0
29/01:00pm 30.8 33.9 22.9 62 5.4 NW 11 19 6 10 1005.6 1005.2 0.0
29/12:30pm 30.4 34.5 23.3 66 4.9 NW 7 13 4 7 1005.8 1005.4 0.0
29/12:00pm 29.7 34.2 22.9 67 4.7 NW 4 9 2 5 1006.1 1005.7 0.0
29/11:30am 29.3 34.1 22.9 68 4.4 WNW 2 7 1 4 1006.4 1006.0 0.0
29/11:00am 29.2 34.0 22.8 68 4.4 WNW 2 9 1 5 1007.0 1006.6 0.0
29/10:30am 29.0 33.9 23.0 70 4.1 N 2 7 1 4 1007.4 1007.0 0.0
29/10:00am 28.9 33.5 22.5 68 4.4 NNE 2 9 1 5 1007.7 1007.3 0.0
29/09:30am 28.5 33.4 23.0 72 3.8 N 2 6 1 3 1008.1 1007.7 0.0
29/09:00am 27.7 31.7 22.7 74 3.4 ESE 6 11 3 6 1008.1 1007.7 9.4
29/08:30am 27.1 30.4 21.9 73 3.5 SSE 7 13 4 7 1008.4 1008.0 9.4
29/08:00am 26.9 29.1 20.5 68 4.2 SSE 9 19 5 10 1008.4 1008.0 9.4
29/07:30am 26.8 29.7 20.7 69 4.0 S 6 9 3 5 1008.1 1007.7 9.4
29/07:00am 25.9 28.0 20.9 74 3.3 ESE 11 19 6 10 1007.9 1007.5 9.4
29/06:30am 25.5 27.5 20.7 75 3.2 SE 11 24 6 13 1008.1 1007.7 9.4
29/06:00am 24.9 27.1 21.9 83 2.0 S 13 22 7 12 1008.0 1007.6 9.4
29/05:30am 26.3 31.2 24.7 91 1.1 SSE 7 13 4 7 1007.4 1007.0 9.4
29/05:00am 26.2 31.7 24.7 91 1.0 SSE 4 9 2 5 1007.1 1006.7 9.4
29/04:30am 26.3 31.6 24.9 92 1.0 S 6 11 3 6 1006.6 1006.2 9.4
29/04:00am 26.4 31.7 25.0 92 1.0 SSE 6 11 3 6 1006.2 1005.8 9.4
29/03:30am 26.4 32.6 25.2 93 0.8 SE 2 7 1 4 1005.7 1005.3 9.4
29/03:00am 26.3 31.9 24.8 91 1.0 ESE 4 7 2 4 1005.8 1005.4 9.4
29/02:30am 26.6 32.8 24.6 89 1.4 CALM 0 6 0 3 1005.7 1005.3 9.4
29/02:00am 27.2 32.7 24.6 86 1.8 WSW 4 9 2 5 1005.3 1004.9 9.4
29/01:30am 27.6 32.8 24.8 85 2.0 WSW 6 9 3 5 1005.5 1005.1 9.4
29/01:00am 27.8 33.3 24.7 83 2.2 WSW 4 9 2 5 1006.0 1005.6 9.4
29/12:30am 27.9 32.8 24.7 83 2.2 WSW 7 13 4 7 1006.0 1005.6 9.4
29/12:00am 27.9 33.0 24.9 84 2.1 WSW 7 17 4 9 1006.2 1005.8 9.4
 
Date/Time
WST
Temp
°C
App
Temp
°C
Dew
Point
Rel
Hum
%
Delta-T
°C
Wind Press
QNH
hPa
Press
MSL
hPa
Rain
since 9 am
mm
Dir
 
Spd
km/h
Gust
km/h
Spd
kts
Gust
kts
28/11:30pm 28.0 33.1 25.0 84 2.1 WSW 7 17 4 9 1006.3 1005.9 9.4
28/11:00pm 27.9 33.0 24.9 84 2.1 WSW 7 15 4 8 1006.4 1006.0 9.4
28/10:30pm 27.8 33.2 25.1 85 1.9 W 6 11 3 6 1006.6 1006.2 9.4
28/10:00pm 27.9 33.5 24.9 84 2.1 WSW 4 7 2 4 1006.8 1006.4 9.4
28/09:30pm 28.2 33.5 24.9 82 2.3 WSW 6 13 3 7 1006.7 1006.3 9.4
28/09:00pm 28.2 33.3 24.9 82 2.3 WSW 7 13 4 7 1006.5 1006.1 9.4
28/08:30pm 28.3 33.6 25.0 82 2.3 WSW 6 13 3 7 1006.1 1005.7 9.4
28/08:00pm 28.4 33.5 24.9 81 2.5 WSW 7 13 4 7 1006.0 1005.6 9.4

Other Formats:

Comma delimited format used in spreadsheet applications
http://www.bom.gov.au/fwo/IDW60801/IDW60801.99206.axf

JavaScript Object Notation format (JSON) in row-major order
http://www.bom.gov.au/fwo/IDW60801/IDW60801.99206.json